sensor_id;sensor_type;location;lat;lon;timestamp;pressure;altitude;pressure_sealevel;temperature;humidity
12897;BME280;6516;35.028;32.372;2023-08-01T00:01:20;98926.94;;;24.59;62.61
12897;BME280;6516;35.028;32.372;2023-08-01T00:03:49;98921.22;;;24.43;60.79
12897;BME280;6516;35.028;32.372;2023-08-01T00:06:17;98921.00;;;24.27;61.17
12897;BME280;6516;35.028;32.372;2023-08-01T00:08:45;98918.19;;;24.10;61.44
12897;BME280;6516;35.028;32.372;2023-08-01T00:11:13;98914.91;;;23.97;61.18
12897;BME280;6516;35.028;32.372;2023-08-01T00:13:41;98911.63;;;23.93;57.74
12897;BME280;6516;35.028;32.372;2023-08-01T00:16:10;98913.66;;;24.01;56.34
12897;BME280;6516;35.028;32.372;2023-08-01T00:18:37;98910.47;;;24.53;55.03
12897;BME280;6516;35.028;32.372;2023-08-01T00:21:07;98912.03;;;25.11;53.64
12897;BME280;6516;35.028;32.372;2023-08-01T00:23:35;98907.63;;;24.73;51.55
12897;BME280;6516;35.028;32.372;2023-08-01T00:26:04;98903.81;;;24.57;50.21
12897;BME280;6516;35.028;32.372;2023-08-01T00:28:31;98905.22;;;24.51;52.02
12897;BME280;6516;35.028;32.372;2023-08-01T00:31:04;98905.13;;;24.34;53.03
12897;BME280;6516;35.028;32.372;2023-08-01T00:33:32;98904.28;;;24.14;52.62
12897;BME280;6516;35.028;32.372;2023-08-01T00:36:00;98898.63;;;24.08;53.29
12897;BME280;6516;35.028;32.372;2023-08-01T00:38:31;98895.09;;;23.98;55.81
12897;BME280;6516;35.028;32.372;2023-08-01T00:40:58;98897.47;;;24.10;60.40
12897;BME280;6516;35.028;32.372;2023-08-01T00:43:26;98897.78;;;24.26;62.95
12897;BME280;6516;35.028;32.372;2023-08-01T00:45:58;98892.63;;;24.42;63.52
12897;BME280;6516;35.028;32.372;2023-08-01T00:48:27;98894.63;;;24.59;64.53
12897;BME280;6516;35.028;32.372;2023-08-01T00:50:55;98889.50;;;24.66;62.04
12897;BME280;6516;35.028;32.372;2023-08-01T00:53:24;98892.59;;;24.71;60.54
12897;BME280;6516;35.028;32.372;2023-08-01T00:55:54;98895.28;;;24.80;61.34
12897;BME280;6516;35.028;32.372;2023-08-01T00:58:22;98897.38;;;24.86;61.41
12897;BME280;6516;35.028;32.372;2023-08-01T01:00:50;98903.09;;;25.47;60.40
12897;BME280;6516;35.028;32.372;2023-08-01T01:03:20;98908.34;;;25.93;61.77
12897;BME280;6516;35.028;32.372;2023-08-01T01:05:53;98909.38;;;25.82;62.04
12897;BME280;6516;35.028;32.372;2023-08-01T01:08:26;98915.16;;;25.70;62.57
12897;BME280;6516;35.028;32.372;2023-08-01T01:10:55;98916.50;;;25.56;62.89
12897;BME280;6516;35.028;32.372;2023-08-01T01:13:23;98910.22;;;25.38;63.52
12897;BME280;6516;35.028;32.372;2023-08-01T01:15:51;98913.97;;;25.18;63.26
12897;BME280;6516;35.028;32.372;2023-08-01T01:18:18;98912.66;;;24.95;62.73
12897;BME280;6516;35.028;32.372;2023-08-01T01:20:47;98913.41;;;24.78;63.49
12897;BME280;6516;35.028;32.372;2023-08-01T01:23:16;98916.41;;;24.75;66.00
12897;BME280;6516;35.028;32.372;2023-08-01T01:25:45;98915.97;;;24.70;67.79
12897;BME280;6516;35.028;32.372;2023-08-01T01:28:14;98914.75;;;24.65;69.13
12897;BME280;6516;35.028;32.372;2023-08-01T01:30:43;98910.78;;;24.59;69.65
12897;BME280;6516;35.028;32.372;2023-08-01T01:33:12;98913.72;;;24.56;70.83
12897;BME280;6516;35.028;32.372;2023-08-01T01:35:40;98916.72;;;24.53;72.17
12897;BME280;6516;35.028;32.372;2023-08-01T01:38:10;98911.34;;;24.53;73.21
12897;BME280;6516;35.028;32.372;2023-08-01T01:40:37;98914.44;;;24.58;75.59
12897;BME280;6516;35.028;32.372;2023-08-01T01:43:05;98925.59;;;24.82;77.00
12897;BME280;6516;35.028;32.372;2023-08-01T01:45:33;98914.50;;;24.95;75.84
12897;BME280;6516;35.028;32.372;2023-08-01T01:48:01;98916.16;;;25.05;75.65
12897;BME280;6516;35.028;32.372;2023-08-01T01:50:28;98920.84;;;25.03;76.19
12897;BME280;6516;35.028;32.372;2023-08-01T01:52:56;98926.81;;;24.97;77.66
12897;BME280;6516;35.028;32.372;2023-08-01T01:55:25;98926.84;;;24.88;77.71
12897;BME280;6516;35.028;32.372;2023-08-01T01:57:53;98923.34;;;24.78;78.14
12897;BME280;6516;35.028;32.372;2023-08-01T02:00:21;98925.19;;;24.68;78.99
12897;BME280;6516;35.028;32.372;2023-08-01T02:02:48;98924.09;;;24.61;80.78
12897;BME280;6516;35.028;32.372;2023-08-01T02:05:16;98934.56;;;24.54;80.84
12897;BME280;6516;35.028;32.372;2023-08-01T02:07:44;98943.91;;;24.50;81.95
12897;BME280;6516;35.028;32.372;2023-08-01T02:10:12;98932.00;;;24.53;83.95
12897;BME280;6516;35.028;32.372;2023-08-01T02:12:41;98938.66;;;24.49;83.90
12897;BME280;6516;35.028;32.372;2023-08-01T02:15:09;98937.84;;;24.48;84.23
12897;BME280;6516;35.028;32.372;2023-08-01T02:17:37;98948.72;;;24.47;84.58
12897;BME280;6516;35.028;32.372;2023-08-01T02:20:05;98941.81;;;24.44;84.72
12897;BME280;6516;35.028;32.372;2023-08-01T02:22:34;98958.34;;;24.40;84.71
12897;BME280;6516;35.028;32.372;2023-08-01T02:25:01;98959.63;;;24.36;84.75
12897;BME280;6516;35.028;32.372;2023-08-01T02:27:29;98962.59;;;24.42;85.17
12897;BME280;6516;35.028;32.372;2023-08-01T02:29:58;98967.56;;;24.75;85.28
12897;BME280;6516;35.028;32.372;2023-08-01T02:32:26;98964.25;;;24.91;83.21
12897;BME280;6516;35.028;32.372;2023-08-01T02:34:54;98970.78;;;24.88;82.72
12897;BME280;6516;35.028;32.372;2023-08-01T02:37:22;98971.66;;;24.79;82.13
12897;BME280;6516;35.028;32.372;2023-08-01T02:39:49;98978.34;;;24.75;84.46
12897;BME280;6516;35.028;32.372;2023-08-01T02:42:17;98978.34;;;24.75;86.24
12897;BME280;6516;35.028;32.372;2023-08-01T02:44:45;98986.13;;;24.78;87.94
12897;BME280;6516;35.028;32.372;2023-08-01T02:47:15;98981.59;;;24.79;89.23
12897;BME280;6516;35.028;32.372;2023-08-01T02:49:42;98982.28;;;24.81;89.92
12897;BME280;6516;35.028;32.372;2023-08-01T02:52:10;98982.16;;;24.82;90.58
12897;BME280;6516;35.028;32.372;2023-08-01T02:54:38;98983.84;;;24.83;90.60
12897;BME280;6516;35.028;32.372;2023-08-01T02:57:06;98992.22;;;24.80;90.54
12897;BME280;6516;35.028;32.372;2023-08-01T02:59:34;98994.19;;;24.78;90.69
12897;BME280;6516;35.028;32.372;2023-08-01T03:02:02;98993.38;;;24.78;90.72
12897;BME280;6516;35.028;32.372;2023-08-01T03:04:31;99005.28;;;24.75;90.69
12897;BME280;6516;35.028;32.372;2023-08-01T03:06:59;99007.25;;;24.73;90.34
12897;BME280;6516;35.028;32.372;2023-08-01T03:09:26;99005.69;;;24.71;90.20
12897;BME280;6516;35.028;32.372;2023-08-01T03:11:54;99009.06;;;24.73;90.80
12897;BME280;6516;35.028;32.372;2023-08-01T03:14:22;99015.88;;;24.86;92.17
12897;BME280;6516;35.028;32.372;2023-08-01T03:16:50;99006.72;;;25.25;91.87
12897;BME280;6516;35.028;32.372;2023-08-01T03:19:17;99011.75;;;25.47;88.85
12897;BME280;6516;35.028;32.372;2023-08-01T03:21:46;99002.50;;;25.50;88.10
12897;BME280;6516;35.028;32.372;2023-08-01T03:24:14;99016.84;;;25.50;88.17
12897;BME280;6516;35.028;32.372;2023-08-01T03:26:42;99015.84;;;25.51;88.21
12897;BME280;6516;35.028;32.372;2023-08-01T03:29:10;99020.81;;;25.56;89.54
12897;BME280;6516;35.028;32.372;2023-08-01T03:31:37;99021.63;;;25.56;89.64
12897;BME280;6516;35.028;32.372;2023-08-01T03:34:05;99015.69;;;25.53;90.15
12897;BME280;6516;35.028;32.372;2023-08-01T03:36:34;99021.38;;;25.50;90.33
12897;BME280;6516;35.028;32.372;2023-08-01T03:39:04;99021.69;;;25.47;90.51
12897;BME280;6516;35.028;32.372;2023-08-01T03:41:32;99023.84;;;25.43;89.84
12897;BME280;6516;35.028;32.372;2023-08-01T03:44:00;99027.16;;;25.18;85.27
12897;BME280;6516;35.028;32.372;2023-08-01T03:46:27;99032.00;;;25.05;81.87
12897;BME280;6516;35.028;32.372;2023-08-01T03:48:55;99022.94;;;24.97;77.49
12897;BME280;6516;35.028;32.372;2023-08-01T03:51:23;99028.34;;;24.97;74.10
12897;BME280;6516;35.028;32.372;2023-08-01T03:53:51;99030.44;;;25.03;77.47
12897;BME280;6516;35.028;32.372;2023-08-01T03:56:20;99026.47;;;25.62;72.03
12897;BME280;6516;35.028;32.372;2023-08-01T03:58:47;99033.41;;;26.19;64.98
12897;BME280;6516;35.028;32.372;2023-08-01T04:01:15;99032.38;;;26.02;64.89
12897;BME280;6516;35.028;32.372;2023-08-01T04:03:43;99031.28;;;25.95;63.81
12897;BME280;6516;35.028;32.372;2023-08-01T04:06:10;99030.72;;;25.92;64.08
12897;BME280;6516;35.028;32.372;2023-08-01T04:08:41;99019.06;;;25.91;64.85
12897;BME280;6516;35.028;32.372;2023-08-01T04:11:08;99023.19;;;25.95;65.02
12897;BME280;6516;35.028;32.372;2023-08-01T04:13:38;99027.44;;;25.98;65.56
12897;BME280;6516;35.028;32.372;2023-08-01T04:16:06;99030.75;;;26.09;67.13
12897;BME280;6516;35.028;32.372;2023-08-01T04:18:34;99024.16;;;26.21;68.65
12897;BME280;6516;35.028;32.372;2023-08-01T04:21:02;99024.47;;;26.36;68.89
12897;BME280;6516;35.028;32.372;2023-08-01T04:23:30;99024.63;;;26.52;70.96
12897;BME280;6516;35.028;32.372;2023-08-01T04:25:57;99029.38;;;27.10;74.97
12897;BME280;6516;35.028;32.372;2023-08-01T04:28:25;99026.94;;;27.51;75.19
12897;BME280;6516;35.028;32.372;2023-08-01T04:30:54;99023.75;;;27.81;75.21
12897;BME280;6516;35.028;32.372;2023-08-01T04:33:22;99024.59;;;28.31;74.16
12897;BME280;6516;35.028;32.372;2023-08-01T04:35:50;99032.13;;;28.85;73.88
12897;BME280;6516;35.028;32.372;2023-08-01T04:38:18;99034.50;;;29.28;71.91
12897;BME280;6516;35.028;32.372;2023-08-01T04:40:46;99030.56;;;29.54;70.63
12897;BME280;6516;35.028;32.372;2023-08-01T04:43:13;99035.78;;;29.72;69.86
12897;BME280;6516;35.028;32.372;2023-08-01T04:45:41;99039.69;;;29.77;71.53
12897;BME280;6516;35.028;32.372;2023-08-01T04:48:10;99040.88;;;29.75;71.20
12897;BME280;6516;35.028;32.372;2023-08-01T04:50:38;99046.78;;;29.78;70.74
12897;BME280;6516;35.028;32.372;2023-08-01T04:53:06;99042.34;;;29.85;70.67
12897;BME280;6516;35.028;32.372;2023-08-01T04:55:33;99044.66;;;30.04;70.55
12897;BME280;6516;35.028;32.372;2023-08-01T04:58:01;99045.56;;;30.58;69.33
12897;BME280;6516;35.028;32.372;2023-08-01T05:00:29;99037.47;;;31.17;67.86
12897;BME280;6516;35.028;32.372;2023-08-01T05:02:57;99038.56;;;31.60;64.71
12897;BME280;6516;35.028;32.372;2023-08-01T05:05:26;99035.19;;;32.16;62.07
12897;BME280;6516;35.028;32.372;2023-08-01T05:07:54;99040.47;;;32.53;60.61
12897;BME280;6516;35.028;32.372;2023-08-01T05:10:22;99031.69;;;32.93;60.09
12897;BME280;6516;35.028;32.372;2023-08-01T05:12:50;99031.66;;;33.35;59.03
12897;BME280;6516;35.028;32.372;2023-08-01T05:15:17;99036.34;;;33.75;56.82
12897;BME280;6516;35.028;32.372;2023-08-01T05:17:45;99042.81;;;34.02;54.90
12897;BME280;6516;35.028;32.372;2023-08-01T05:20:13;99042.22;;;34.06;54.45
12897;BME280;6516;35.028;32.372;2023-08-01T05:22:42;99035.94;;;34.12;53.50
12897;BME280;6516;35.028;32.372;2023-08-01T05:25:10;99042.81;;;34.36;53.77
12897;BME280;6516;35.028;32.372;2023-08-01T05:27:37;99039.72;;;34.58;52.85
12897;BME280;6516;35.028;32.372;2023-08-01T05:30:06;99047.13;;;34.77;52.65
12897;BME280;6516;35.028;32.372;2023-08-01T05:32:35;99040.03;;;34.89;51.13
12897;BME280;6516;35.028;32.372;2023-08-01T05:35:03;99038.56;;;34.93;51.85
12897;BME280;6516;35.028;32.372;2023-08-01T05:37:31;99039.88;;;34.50;52.66
12897;BME280;6516;35.028;32.372;2023-08-01T05:40:02;99039.78;;;34.24;53.50
12897;BME280;6516;35.028;32.372;2023-08-01T05:42:29;99038.69;;;34.12;54.38
12897;BME280;6516;35.028;32.372;2023-08-01T05:44:57;99041.44;;;34.19;54.00
12897;BME280;6516;35.028;32.372;2023-08-01T05:47:25;99049.78;;;34.04;54.02
12897;BME280;6516;35.028;32.372;2023-08-01T05:49:53;99048.56;;;34.13;53.53
12897;BME280;6516;35.028;32.372;2023-08-01T05:52:20;99043.97;;;34.20;52.89
12897;BME280;6516;35.028;32.372;2023-08-01T05:54:48;99052.09;;;34.48;51.87
12897;BME280;6516;35.028;32.372;2023-08-01T05:57:17;99047.25;;;34.43;52.51
12897;BME280;6516;35.028;32.372;2023-08-01T05:59:45;99050.63;;;34.52;51.23
12897;BME280;6516;35.028;32.372;2023-08-01T06:02:13;99050.25;;;34.61;51.55
12897;BME280;6516;35.028;32.372;2023-08-01T06:04:41;99045.06;;;34.79;51.49
12897;BME280;6516;35.028;32.372;2023-08-01T06:07:08;99054.56;;;34.96;50.86
12897;BME280;6516;35.028;32.372;2023-08-01T06:09:37;99056.25;;;35.10;50.70
12897;BME280;6516;35.028;32.372;2023-08-01T06:12:06;99048.91;;;35.37;49.67
12897;BME280;6516;35.028;32.372;2023-08-01T06:14:38;99055.66;;;35.60;49.11
12897;BME280;6516;35.028;32.372;2023-08-01T06:17:07;99045.09;;;35.77;47.94
12897;BME280;6516;35.028;32.372;2023-08-01T06:19:34;99044.59;;;35.99;46.94
12897;BME280;6516;35.028;32.372;2023-08-01T06:22:02;99049.63;;;36.22;47.24
12897;BME280;6516;35.028;32.372;2023-08-01T06:24:30;99033.97;;;36.29;46.79
12897;BME280;6516;35.028;32.372;2023-08-01T06:26:58;99044.06;;;36.41;45.88
12897;BME280;6516;35.028;32.372;2023-08-01T06:29:26;99043.41;;;36.46;45.47
12897;BME280;6516;35.028;32.372;2023-08-01T06:31:55;99044.50;;;36.38;44.83
12897;BME280;6516;35.028;32.372;2023-08-01T06:34:23;99042.03;;;36.24;45.81
12897;BME280;6516;35.028;32.372;2023-08-01T06:36:52;99035.25;;;36.26;44.98
12897;BME280;6516;35.028;32.372;2023-08-01T06:39:19;99041.63;;;36.20;45.40
12897;BME280;6516;35.028;32.372;2023-08-01T06:41:47;99047.97;;;36.08;45.83
12897;BME280;6516;35.028;32.372;2023-08-01T06:44:15;99042.25;;;36.16;45.06
12897;BME280;6516;35.028;32.372;2023-08-01T06:46:43;99041.97;;;36.37;44.92
12897;BME280;6516;35.028;32.372;2023-08-01T06:49:12;99043.75;;;36.12;45.13
12897;BME280;6516;35.028;32.372;2023-08-01T06:51:39;99057.66;;;36.10;45.80
12897;BME280;6516;35.028;32.372;2023-08-01T06:54:08;99053.72;;;35.93;45.63
12897;BME280;6516;35.028;32.372;2023-08-01T06:56:36;99054.59;;;35.81;45.74
12897;BME280;6516;35.028;32.372;2023-08-01T06:59:04;99062.31;;;36.03;46.11
12897;BME280;6516;35.028;32.372;2023-08-01T07:01:32;99055.84;;;35.85;45.61
12897;BME280;6516;35.028;32.372;2023-08-01T07:04:00;99071.78;;;36.07;45.70
12897;BME280;6516;35.028;32.372;2023-08-01T07:06:29;99068.16;;;36.20;46.15
12897;BME280;6516;35.028;32.372;2023-08-01T07:08:59;99072.31;;;36.48;44.97
12897;BME280;6516;35.028;32.372;2023-08-01T07:11:27;99082.31;;;36.74;45.09
12897;BME280;6516;35.028;32.372;2023-08-01T07:13:54;99071.13;;;36.75;44.94
12897;BME280;6516;35.028;32.372;2023-08-01T07:16:22;99077.69;;;36.74;45.25
12897;BME280;6516;35.028;32.372;2023-08-01T07:18:50;99076.00;;;36.73;44.48
12897;BME280;6516;35.028;32.372;2023-08-01T07:21:18;99073.69;;;36.70;43.85
12897;BME280;6516;35.028;32.372;2023-08-01T07:23:47;99075.81;;;36.75;44.10
12897;BME280;6516;35.028;32.372;2023-08-01T07:26:15;99075.34;;;36.78;45.09
12897;BME280;6516;35.028;32.372;2023-08-01T07:28:42;99079.84;;;36.97;44.71
12897;BME280;6516;35.028;32.372;2023-08-01T07:31:10;99074.94;;;37.12;44.24
12897;BME280;6516;35.028;32.372;2023-08-01T07:33:38;99077.25;;;37.39;44.44
12897;BME280;6516;35.028;32.372;2023-08-01T07:36:05;99081.03;;;37.69;43.69
12897;BME280;6516;35.028;32.372;2023-08-01T07:38:36;99072.72;;;37.76;43.40
12897;BME280;6516;35.028;32.372;2023-08-01T07:41:06;99077.25;;;37.88;43.35
12897;BME280;6516;35.028;32.372;2023-08-01T07:43:34;99079.25;;;37.81;42.64
12897;BME280;6516;35.028;32.372;2023-08-01T07:46:01;99082.88;;;37.75;44.36
12897;BME280;6516;35.028;32.372;2023-08-01T07:48:29;99090.06;;;37.94;43.30
12897;BME280;6516;35.028;32.372;2023-08-01T07:50:58;99091.31;;;37.98;43.14
12897;BME280;6516;35.028;32.372;2023-08-01T07:53:26;99087.31;;;37.94;43.89
12897;BME280;6516;35.028;32.372;2023-08-01T07:55:54;99092.28;;;38.10;43.37
12897;BME280;6516;35.028;32.372;2023-08-01T07:58:24;99091.56;;;38.15;43.38
12897;BME280;6516;35.028;32.372;2023-08-01T08:00:52;99093.44;;;37.96;43.58
12897;BME280;6516;35.028;32.372;2023-08-01T08:03:20;99099.88;;;38.08;43.15
12897;BME280;6516;35.028;32.372;2023-08-01T08:05:50;99095.94;;;38.22;42.94
12897;BME280;6516;35.028;32.372;2023-08-01T08:08:20;99096.91;;;38.10;43.19
12897;BME280;6516;35.028;32.372;2023-08-01T08:10:48;99095.16;;;38.15;42.73
12897;BME280;6516;35.028;32.372;2023-08-01T08:13:15;99094.41;;;38.26;43.08
12897;BME280;6516;35.028;32.372;2023-08-01T08:15:44;99090.25;;;37.99;43.61
12897;BME280;6516;35.028;32.372;2023-08-01T08:18:12;99097.41;;;38.07;43.18
12897;BME280;6516;35.028;32.372;2023-08-01T08:20:44;99095.41;;;38.32;41.94
12897;BME280;6516;35.028;32.372;2023-08-01T08:23:12;99107.56;;;38.60;42.30
12897;BME280;6516;35.028;32.372;2023-08-01T08:25:40;99095.97;;;38.58;41.65
12897;BME280;6516;35.028;32.372;2023-08-01T08:28:11;99107.41;;;38.55;42.50
12897;BME280;6516;35.028;32.372;2023-08-01T08:30:39;99096.97;;;38.75;42.17
12897;BME280;6516;35.028;32.372;2023-08-01T08:33:08;99100.97;;;38.61;42.32
12897;BME280;6516;35.028;32.372;2023-08-01T08:35:36;99105.88;;;38.77;42.11
12897;BME280;6516;35.028;32.372;2023-08-01T08:38:04;99104.16;;;38.94;41.77
12897;BME280;6516;35.028;32.372;2023-08-01T08:40:32;99105.38;;;38.80;41.85
12897;BME280;6516;35.028;32.372;2023-08-01T08:43:01;99101.56;;;38.81;41.82
12897;BME280;6516;35.028;32.372;2023-08-01T08:45:32;99107.06;;;38.99;41.98
12897;BME280;6516;35.028;32.372;2023-08-01T08:48:03;99105.41;;;39.10;41.93
12897;BME280;6516;35.028;32.372;2023-08-01T08:50:40;99116.50;;;39.03;41.84
12897;BME280;6516;35.028;32.372;2023-08-01T08:53:09;99113.56;;;39.16;41.58
12897;BME280;6516;35.028;32.372;2023-08-01T08:55:39;99110.50;;;38.95;42.52
12897;BME280;6516;35.028;32.372;2023-08-01T08:58:09;99106.31;;;38.74;42.80
12897;BME280;6516;35.028;32.372;2023-08-01T09:00:37;99110.03;;;38.50;43.52
12897;BME280;6516;35.028;32.372;2023-08-01T09:03:06;99107.47;;;38.13;44.08
12897;BME280;6516;35.028;32.372;2023-08-01T09:05:42;99114.00;;;37.94;45.09
12897;BME280;6516;35.028;32.372;2023-08-01T09:08:16;99112.97;;;38.13;45.23
12897;BME280;6516;35.028;32.372;2023-08-01T09:10:46;99112.75;;;38.32;44.32
12897;BME280;6516;35.028;32.372;2023-08-01T09:13:14;99124.00;;;38.67;43.39
12897;BME280;6516;35.028;32.372;2023-08-01T09:15:42;99115.34;;;38.81;43.82
12897;BME280;6516;35.028;32.372;2023-08-01T09:18:10;99113.34;;;38.88;43.37
12897;BME280;6516;35.028;32.372;2023-08-01T09:20:45;99116.84;;;38.48;44.54
12897;BME280;6516;35.028;32.372;2023-08-01T09:23:14;99108.06;;;38.33;45.18
12897;BME280;6516;35.028;32.372;2023-08-01T09:25:43;99115.56;;;37.83;46.34
12897;BME280;6516;35.028;32.372;2023-08-01T09:28:18;99105.25;;;38.03;45.60
12897;BME280;6516;35.028;32.372;2023-08-01T09:30:48;99112.13;;;38.30;44.79
12897;BME280;6516;35.028;32.372;2023-08-01T09:33:16;99117.03;;;38.64;44.14
12897;BME280;6516;35.028;32.372;2023-08-01T09:35:46;99105.78;;;38.84;43.16
12897;BME280;6516;35.028;32.372;2023-08-01T09:38:14;99106.69;;;38.78;42.38
12897;BME280;6516;35.028;32.372;2023-08-01T09:40:44;99097.81;;;38.46;42.12
12897;BME280;6516;35.028;32.372;2023-08-01T09:43:13;99083.56;;;38.67;41.82
12897;BME280;6516;35.028;32.372;2023-08-01T09:45:50;99091.00;;;38.49;41.64
12897;BME280;6516;35.028;32.372;2023-08-01T09:48:24;99086.63;;;38.59;41.35
12897;BME280;6516;35.028;32.372;2023-08-01T09:51:04;99082.88;;;38.36;40.25
12897;BME280;6516;35.028;32.372;2023-08-01T09:53:33;99082.25;;;38.34;41.89
12897;BME280;6516;35.028;32.372;2023-08-01T09:56:02;99090.56;;;38.81;41.48
12897;BME280;6516;35.028;32.372;2023-08-01T09:58:33;99090.59;;;39.22;41.21
12897;BME280;6516;35.028;32.372;2023-08-01T10:01:01;99089.75;;;39.22;39.83
12897;BME280;6516;35.028;32.372;2023-08-01T10:03:29;99100.97;;;39.50;40.58
12897;BME280;6516;35.028;32.372;2023-08-01T10:05:59;99079.66;;;39.68;40.64
12897;BME280;6516;35.028;32.372;2023-08-01T10:08:28;99089.72;;;39.51;42.50
12897;BME280;6516;35.028;32.372;2023-08-01T10:11:00;99092.25;;;39.53;42.93
12897;BME280;6516;35.028;32.372;2023-08-01T10:13:32;99089.59;;;39.46;42.22
12897;BME280;6516;35.028;32.372;2023-08-01T10:16:00;99092.13;;;39.59;42.29
12897;BME280;6516;35.028;32.372;2023-08-01T10:18:28;99077.78;;;39.28;43.03
12897;BME280;6516;35.028;32.372;2023-08-01T10:20:59;99083.53;;;39.26;40.14
12897;BME280;6516;35.028;32.372;2023-08-01T10:23:28;99087.66;;;39.35;39.20
12897;BME280;6516;35.028;32.372;2023-08-01T10:25:56;99074.66;;;39.24;38.79
12897;BME280;6516;35.028;32.372;2023-08-01T10:28:31;99087.84;;;38.63;40.31
12897;BME280;6516;35.028;32.372;2023-08-01T10:31:09;99093.13;;;38.47;42.33
12897;BME280;6516;35.028;32.372;2023-08-01T10:33:37;99089.38;;;38.41;40.42
12897;BME280;6516;35.028;32.372;2023-08-01T10:36:17;99091.81;;;38.13;41.73
12897;BME280;6516;35.028;32.372;2023-08-01T10:38:49;99080.38;;;37.92;41.60
12897;BME280;6516;35.028;32.372;2023-08-01T10:41:24;99072.81;;;37.87;41.77
12897;BME280;6516;35.028;32.372;2023-08-01T10:44:04;99065.31;;;37.94;41.53
12897;BME280;6516;35.028;32.372;2023-08-01T10:46:46;99067.00;;;37.53;42.12
12897;BME280;6516;35.028;32.372;2023-08-01T10:49:15;99072.22;;;37.36;43.16
12897;BME280;6516;35.028;32.372;2023-08-01T10:51:45;99073.75;;;37.57;42.81
12897;BME280;6516;35.028;32.372;2023-08-01T10:54:20;99059.53;;;37.35;42.60
12897;BME280;6516;35.028;32.372;2023-08-01T10:56:48;99067.97;;;37.09;43.79
12897;BME280;6516;35.028;32.372;2023-08-01T10:59:17;99056.44;;;36.57;44.04
12897;BME280;6516;35.028;32.372;2023-08-01T11:01:47;99063.94;;;36.81;44.68
12897;BME280;6516;35.028;32.372;2023-08-01T11:04:16;99054.59;;;36.88;44.07
12897;BME280;6516;35.028;32.372;2023-08-01T11:06:50;99062.16;;;36.55;44.94
12897;BME280;6516;35.028;32.372;2023-08-01T11:09:22;99055.53;;;36.25;43.63
12897;BME280;6516;35.028;32.372;2023-08-01T11:11:53;99052.13;;;36.36;44.96
12897;BME280;6516;35.028;32.372;2023-08-01T11:14:22;99059.34;;;36.24;42.31
12897;BME280;6516;35.028;32.372;2023-08-01T11:16:50;99057.19;;;36.26;46.36
12897;BME280;6516;35.028;32.372;2023-08-01T11:19:20;99052.38;;;36.15;46.44
12897;BME280;6516;35.028;32.372;2023-08-01T11:21:51;99067.13;;;36.27;46.33
12897;BME280;6516;35.028;32.372;2023-08-01T11:24:19;99066.16;;;36.59;46.16
12897;BME280;6516;35.028;32.372;2023-08-01T11:26:48;99063.56;;;36.64;44.77
12897;BME280;6516;35.028;32.372;2023-08-01T11:29:18;99066.25;;;36.33;45.35
12897;BME280;6516;35.028;32.372;2023-08-01T11:31:56;99059.75;;;36.08;45.48
12897;BME280;6516;35.028;32.372;2023-08-01T11:34:24;99067.97;;;36.15;45.98
12897;BME280;6516;35.028;32.372;2023-08-01T11:36:54;99060.44;;;36.04;46.91
12897;BME280;6516;35.028;32.372;2023-08-01T11:39:22;99064.22;;;36.03;46.16
12897;BME280;6516;35.028;32.372;2023-08-01T11:41:50;99063.13;;;36.30;45.37
12897;BME280;6516;35.028;32.372;2023-08-01T11:44:18;99062.47;;;36.28;45.74
12897;BME280;6516;35.028;32.372;2023-08-01T11:46:50;99067.00;;;35.96;46.01
12897;BME280;6516;35.028;32.372;2023-08-01T11:49:18;99059.19;;;35.67;46.24
12897;BME280;6516;35.028;32.372;2023-08-01T11:51:46;99069.56;;;35.46;47.82
12897;BME280;6516;35.028;32.372;2023-08-01T11:54:15;99069.97;;;35.43;47.32
12897;BME280;6516;35.028;32.372;2023-08-01T11:56:43;99069.56;;;35.33;48.22
12897;BME280;6516;35.028;32.372;2023-08-01T11:59:12;99071.69;;;35.31;48.33
12897;BME280;6516;35.028;32.372;2023-08-01T12:01:42;99063.22;;;35.13;49.15
12897;BME280;6516;35.028;32.372;2023-08-01T12:04:23;99069.63;;;34.66;50.18
12897;BME280;6516;35.028;32.372;2023-08-01T12:06:51;99073.19;;;34.60;49.28
12897;BME280;6516;35.028;32.372;2023-08-01T12:09:20;99067.88;;;35.38;49.01
12897;BME280;6516;35.028;32.372;2023-08-01T12:11:58;99073.97;;;35.27;48.12
12897;BME280;6516;35.028;32.372;2023-08-01T12:14:26;99071.63;;;35.05;48.89
12897;BME280;6516;35.028;32.372;2023-08-01T12:16:55;99081.44;;;34.73;49.48
12897;BME280;6516;35.028;32.372;2023-08-01T12:19:23;99078.53;;;34.88;49.74
12897;BME280;6516;35.028;32.372;2023-08-01T12:21:51;99076.88;;;35.00;49.53
12897;BME280;6516;35.028;32.372;2023-08-01T12:24:20;99078.06;;;34.78;49.68
12897;BME280;6516;35.028;32.372;2023-08-01T12:26:48;99068.56;;;34.67;49.89
12897;BME280;6516;35.028;32.372;2023-08-01T12:29:16;99070.41;;;34.47;50.70
12897;BME280;6516;35.028;32.372;2023-08-01T12:31:44;99068.53;;;34.61;49.78
12897;BME280;6516;35.028;32.372;2023-08-01T12:34:12;99061.53;;;34.45;47.97
12897;BME280;6516;35.028;32.372;2023-08-01T12:36:40;99055.06;;;34.53;49.23
12897;BME280;6516;35.028;32.372;2023-08-01T12:39:08;99057.19;;;34.64;48.51
12897;BME280;6516;35.028;32.372;2023-08-01T12:41:38;99055.72;;;34.61;48.08
12897;BME280;6516;35.028;32.372;2023-08-01T12:44:06;99066.00;;;34.46;48.38
12897;BME280;6516;35.028;32.372;2023-08-01T12:46:33;99053.75;;;34.36;49.81
12897;BME280;6516;35.028;32.372;2023-08-01T12:49:01;99049.41;;;34.67;48.15
12897;BME280;6516;35.028;32.372;2023-08-01T12:51:29;99046.47;;;34.69;48.35
12897;BME280;6516;35.028;32.372;2023-08-01T12:53:57;99038.75;;;34.92;47.84
12897;BME280;6516;35.028;32.372;2023-08-01T12:56:25;99043.00;;;35.14;46.94
12897;BME280;6516;35.028;32.372;2023-08-01T12:58:54;99029.22;;;34.68;48.11
12897;BME280;6516;35.028;32.372;2023-08-01T13:01:21;99027.88;;;34.38;49.07
12897;BME280;6516;35.028;32.372;2023-08-01T13:03:49;99029.78;;;34.44;49.13
12897;BME280;6516;35.028;32.372;2023-08-01T13:06:17;99028.72;;;34.32;48.90
12897;BME280;6516;35.028;32.372;2023-08-01T13:08:45;99019.53;;;34.12;50.13